createdAt,value
2023-03-04T00:02:13.700Z,1.05
2023-03-04T00:04:40.612Z,0.95
2023-03-04T00:07:07.405Z,0.87
2023-03-04T00:09:34.397Z,0.73
2023-03-04T00:12:01.255Z,0.78
2023-03-04T00:14:30.352Z,0.81
2023-03-04T00:16:57.287Z,0.75
2023-03-04T00:19:24.094Z,0.74
2023-03-04T00:21:50.891Z,0.82
2023-03-04T00:24:17.688Z,0.72
2023-03-04T00:26:44.498Z,0.71
2023-03-04T00:29:11.253Z,0.81
2023-03-04T00:31:38.185Z,0.77
2023-03-04T00:34:05.070Z,0.72
2023-03-04T00:36:31.842Z,0.73
2023-03-04T00:38:58.857Z,0.65
2023-03-04T00:41:25.617Z,0.58
2023-03-04T00:43:52.434Z,0.56
2023-03-04T00:46:19.260Z,0.51
2023-03-04T00:48:45.997Z,0.55
2023-03-04T00:51:12.809Z,0.62
2023-03-04T00:53:39.933Z,0.64
2023-03-04T00:56:07.302Z,0.61
2023-03-04T00:58:34.101Z,0.64
2023-03-04T01:01:00.942Z,0.62
2023-03-04T01:03:31.404Z,0.61
2023-03-04T01:05:58.783Z,0.76
2023-03-04T01:08:26.591Z,0.72
2023-03-04T01:10:53.635Z,0.64
2023-03-04T01:13:20.637Z,0.63
2023-03-04T01:15:47.411Z,0.58
2023-03-04T01:18:14.291Z,0.54
2023-03-04T01:20:41.772Z,0.72
2023-03-04T01:23:08.541Z,0.62
2023-03-04T01:25:35.609Z,0.61
2023-03-04T01:28:02.740Z,0.70
2023-03-04T01:30:29.577Z,0.66
2023-03-04T01:32:56.708Z,0.62
2023-03-04T01:35:23.436Z,0.62
2023-03-04T01:37:50.362Z,0.55
2023-03-04T01:40:17.534Z,0.45
2023-03-04T01:42:45.352Z,0.37
2023-03-04T01:45:18.296Z,0.17
2023-03-04T01:47:50.520Z,0.21
2023-03-04T01:50:34.144Z,0.33
2023-03-04T01:53:02.344Z,0.25
2023-03-04T01:55:30.931Z,0.22
2023-03-04T01:57:57.883Z,0.16
2023-03-04T02:00:35.181Z,0.15
2023-03-04T02:03:12.966Z,0.12
2023-03-04T02:05:43.193Z,0.03
2023-03-04T02:08:12.231Z,0.13
2023-03-04T02:10:40.645Z,0.12
2023-03-04T02:13:07.524Z,0.00
2023-03-04T02:15:34.523Z,0.00
2023-03-04T02:18:02.251Z,-0.07
2023-03-04T02:21:03.836Z,-0.14
2023-03-04T02:23:52.074Z,-0.19
2023-03-04T02:26:30.304Z,-0.41
2023-03-04T02:28:59.621Z,-0.25
2023-03-04T02:31:39.900Z,-0.26
2023-03-04T02:34:13.678Z,-0.40
2023-03-04T02:36:42.296Z,-0.28
2023-03-04T02:39:22.398Z,-0.26
2023-03-04T02:41:51.922Z,-0.24
2023-03-04T02:44:23.544Z,-0.31
2023-03-04T02:46:52.320Z,-0.34
2023-03-04T02:49:19.725Z,-0.62
2023-03-04T02:51:46.986Z,-0.24
2023-03-04T02:54:19.152Z,-0.39
2023-03-04T02:56:54.139Z,-0.26
2023-03-04T02:59:23.476Z,-0.32
2023-03-04T03:01:51.796Z,-0.31
2023-03-04T03:04:21.011Z,-0.41
2023-03-04T03:06:49.335Z,-0.30
2023-03-04T03:09:17.077Z,-0.28
2023-03-04T03:11:43.913Z,-0.30
2023-03-04T03:14:11.109Z,-0.30
2023-03-04T03:16:38.382Z,-0.42
2023-03-04T03:19:05.240Z,-0.28
2023-03-04T03:21:33.652Z,-0.35
2023-03-04T03:24:00.495Z,-0.42
2023-03-04T03:26:27.621Z,-0.41
2023-03-04T03:28:54.698Z,-0.39
2023-03-04T03:31:21.798Z,-0.14
2023-03-04T03:33:48.628Z,-0.10
2023-03-04T03:36:15.504Z,-0.06
2023-03-04T03:38:42.299Z,-0.03
2023-03-04T03:41:09.169Z,0.01
2023-03-04T03:43:36.020Z,0.07
2023-03-04T03:46:02.937Z,-0.04
2023-03-04T03:48:29.734Z,0.11
2023-03-04T03:50:56.506Z,0.16
2023-03-04T03:53:23.287Z,0.02
2023-03-04T03:55:50.035Z,0.19
2023-03-04T03:58:16.812Z,0.18
2023-03-04T04:00:43.574Z,0.00
2023-03-04T04:03:15.040Z,0.19
2023-03-04T04:05:41.918Z,0.09
2023-03-04T04:08:13.607Z,0.22
2023-03-04T04:10:41.367Z,0.11
2023-03-04T04:13:08.582Z,0.24
2023-03-04T04:15:36.640Z,0.21
2023-03-04T04:18:03.514Z,0.17
2023-03-04T04:20:30.492Z,0.15
2023-03-04T04:22:57.326Z,0.12
2023-03-04T04:25:24.218Z,0.13
2023-03-04T04:27:51.037Z,0.12
2023-03-04T04:30:18.187Z,0.09
2023-03-04T04:32:45.210Z,0.06
2023-03-04T04:35:12.004Z,0.02
2023-03-04T04:37:38.768Z,-0.05
2023-03-04T04:40:06.217Z,0.12
2023-03-04T04:42:33.342Z,0.06
2023-03-04T04:45:00.146Z,0.05
2023-03-04T04:47:27.012Z,0.05
2023-03-04T04:49:53.799Z,0.03
2023-03-04T04:52:20.615Z,0.08
2023-03-04T04:54:47.417Z,0.05
2023-03-04T04:57:14.626Z,0.09
2023-03-04T04:59:41.367Z,-0.02
2023-03-04T05:02:08.262Z,-0.01
2023-03-04T05:04:34.983Z,0.04
2023-03-04T05:07:01.739Z,-0.01
2023-03-04T05:09:28.459Z,0.05
2023-03-04T05:11:55.229Z,-0.01
2023-03-04T05:14:22.362Z,0.09
2023-03-04T05:16:49.148Z,0.17
2023-03-04T05:19:15.981Z,0.15
2023-03-04T05:21:42.740Z,0.14
2023-03-04T05:24:09.694Z,0.17
2023-03-04T05:26:36.470Z,0.21
2023-03-04T05:29:04.418Z,0.21
2023-03-04T05:31:31.291Z,0.13
2023-03-04T05:33:58.022Z,0.26
2023-03-04T05:36:24.750Z,0.29
2023-03-04T05:38:51.555Z,0.28
2023-03-04T05:41:22.613Z,0.32
2023-03-04T05:43:50.361Z,0.34
2023-03-04T05:46:19.304Z,0.41
2023-03-04T05:48:46.261Z,0.41
2023-03-04T05:51:13.049Z,0.43
2023-03-04T05:53:41.655Z,0.34
2023-03-04T05:56:10.612Z,0.47
2023-03-04T05:58:37.538Z,0.51
2023-03-04T06:01:05.659Z,0.57
2023-03-04T06:03:33.420Z,0.63
2023-03-04T06:06:00.465Z,0.70
2023-03-04T06:08:27.807Z,0.72
2023-03-04T06:10:56.640Z,0.74
2023-03-04T06:13:23.945Z,0.88
2023-03-04T06:15:55.791Z,0.95
2023-03-04T06:18:23.308Z,0.99
2023-03-04T06:20:50.366Z,1.05
2023-03-04T06:23:17.671Z,0.97
2023-03-04T06:25:44.347Z,1.14
2023-03-04T06:28:11.302Z,1.14
2023-03-04T06:30:38.111Z,1.13
2023-03-04T06:33:04.821Z,1.22
2023-03-04T06:35:31.706Z,1.17
2023-03-04T06:37:58.404Z,1.32
2023-03-04T06:40:25.592Z,1.40
2023-03-04T06:42:52.359Z,1.46
2023-03-04T06:45:19.156Z,1.46
2023-03-04T06:47:45.995Z,1.67
2023-03-04T06:50:13.625Z,1.67
2023-03-04T06:52:40.763Z,1.77
2023-03-04T06:55:08.512Z,1.74
2023-03-04T06:57:35.446Z,1.87
2023-03-04T07:00:03.541Z,1.84
2023-03-04T07:02:30.493Z,1.88
2023-03-04T07:04:57.663Z,1.91
2023-03-04T07:07:26.457Z,1.90
2023-03-04T07:09:53.243Z,2.06
2023-03-04T07:12:20.006Z,2.06
2023-03-04T07:14:46.802Z,2.18
2023-03-04T07:17:13.579Z,2.20
2023-03-04T07:19:41.844Z,2.25
2023-03-04T07:22:08.624Z,2.25
2023-03-04T07:24:35.412Z,2.34
2023-03-04T07:27:02.231Z,2.35
2023-03-04T07:29:29.017Z,2.45
2023-03-04T07:31:56.018Z,2.45
2023-03-04T07:34:23.083Z,2.52
2023-03-04T07:36:49.794Z,2.61
2023-03-04T07:39:16.581Z,2.60
2023-03-04T07:41:43.360Z,2.72
2023-03-04T07:44:13.383Z,2.70
2023-03-04T07:46:40.724Z,2.93
2023-03-04T07:49:07.802Z,2.93
2023-03-04T07:51:35.716Z,3.05
2023-03-04T07:54:02.788Z,3.13
2023-03-04T07:56:32.157Z,3.17
2023-03-04T07:58:59.284Z,3.22
2023-03-04T08:01:31.637Z,3.12
2023-03-04T08:03:58.835Z,3.34
2023-03-04T08:06:27.005Z,3.21
2023-03-04T08:09:02.265Z,3.50
2023-03-04T08:11:30.706Z,3.58
2023-03-04T08:13:57.554Z,3.56
2023-03-04T08:16:25.027Z,3.71
2023-03-04T08:18:55.129Z,3.84
2023-03-04T08:21:22.469Z,3.90
2023-03-04T08:23:50.416Z,3.98
2023-03-04T08:26:36.098Z,4.02
2023-03-04T08:29:04.939Z,4.00
2023-03-04T08:31:32.394Z,4.04
2023-03-04T08:33:59.373Z,4.26
2023-03-04T08:36:26.337Z,4.31
2023-03-04T08:38:53.080Z,4.45
2023-03-04T08:41:20.608Z,4.62
2023-03-04T08:43:47.360Z,4.51
2023-03-04T08:46:14.220Z,4.66
2023-03-04T08:48:41.139Z,4.71
2023-03-04T08:51:13.625Z,4.77
2023-03-04T08:53:41.073Z,4.78
2023-03-04T08:56:09.035Z,4.89
2023-03-04T08:58:36.312Z,4.88
2023-03-04T09:01:03.900Z,4.86
2023-03-04T09:03:30.810Z,4.97
2023-03-04T09:05:57.625Z,4.95
2023-03-04T09:08:24.582Z,5.07
2023-03-04T09:10:54.041Z,5.02
2023-03-04T09:13:26.344Z,5.22
2023-03-04T09:15:53.320Z,5.40
2023-03-04T09:18:22.585Z,5.38
2023-03-04T09:20:49.547Z,5.35
2023-03-04T09:23:17.783Z,5.41
2023-03-04T09:25:46.519Z,5.47
2023-03-04T09:28:14.502Z,5.30
2023-03-04T09:30:41.434Z,5.29
2023-03-04T09:33:08.254Z,5.44
2023-03-04T09:35:35.302Z,5.41
2023-03-04T09:38:02.117Z,5.56
2023-03-04T09:40:34.755Z,5.59
2023-03-04T09:43:04.115Z,5.60
2023-03-04T09:45:47.052Z,5.56
2023-03-04T09:48:17.720Z,5.56
2023-03-04T09:51:06.602Z,5.62
2023-03-04T09:54:06.109Z,5.75
2023-03-04T09:56:38.895Z,5.58
2023-03-04T09:59:17.390Z,5.59
2023-03-04T10:01:55.085Z,5.73
2023-03-04T10:04:40.609Z,5.81
2023-03-04T10:07:19.130Z,5.79
2023-03-04T10:10:10.603Z,5.92
2023-03-04T10:12:41.076Z,5.96
2023-03-04T10:15:18.696Z,6.10
2023-03-04T10:17:51.579Z,6.16
2023-03-04T10:20:26.930Z,6.22
2023-03-04T10:23:00.011Z,6.26
2023-03-04T10:25:32.181Z,6.19
2023-03-04T10:28:06.260Z,6.33
2023-03-04T10:30:51.045Z,6.32
2023-03-04T10:33:20.907Z,6.38
2023-03-04T10:35:53.409Z,6.48
2023-03-04T10:38:22.596Z,6.52
2023-03-04T10:40:49.838Z,6.50
2023-03-04T10:43:19.097Z,6.64
2023-03-04T10:45:46.945Z,6.77
2023-03-04T10:48:23.181Z,6.79
2023-03-04T10:50:50.246Z,6.77
2023-03-04T10:53:33.546Z,6.98
2023-03-04T10:56:00.964Z,7.09
2023-03-04T10:58:27.872Z,7.07
2023-03-04T11:01:04.059Z,7.19
2023-03-04T11:03:33.126Z,7.13
2023-03-04T11:06:13.348Z,7.49
2023-03-04T11:08:42.303Z,7.56
2023-03-04T11:11:38.925Z,7.74
2023-03-04T11:14:22.057Z,7.84
2023-03-04T11:16:58.724Z,8.01
2023-03-04T11:19:34.864Z,8.21
2023-03-04T11:22:02.907Z,8.32
2023-03-04T11:24:33.044Z,8.53
2023-03-04T11:27:05.834Z,8.67
2023-03-04T11:29:42.229Z,8.66
2023-03-04T11:32:20.853Z,8.89
2023-03-04T11:34:59.070Z,9.29
2023-03-04T11:37:37.728Z,10.23
2023-03-04T11:40:05.139Z,12.24
2023-03-04T11:42:40.027Z,14.23
2023-03-04T11:45:28.111Z,15.59
2023-03-04T11:48:05.064Z,18.34
2023-03-04T11:50:41.655Z,19.04
2023-03-04T11:53:20.612Z,20.37
2023-03-04T11:56:03.186Z,20.10
2023-03-04T11:59:08.315Z,19.93
2023-03-04T12:01:46.739Z,19.84
2023-03-04T12:04:26.207Z,18.69
2023-03-04T12:07:02.016Z,16.86
2023-03-04T12:10:02.426Z,15.03
2023-03-04T12:13:07.399Z,13.99
2023-03-04T12:16:01.316Z,13.25
2023-03-04T12:18:28.166Z,12.96
2023-03-04T12:21:28.276Z,12.27
2023-03-04T12:24:01.301Z,11.67
2023-03-04T12:26:36.751Z,11.37
2023-03-04T12:29:13.483Z,11.35
2023-03-04T12:31:45.691Z,10.94
2023-03-04T12:34:33.709Z,10.83
2023-03-04T12:37:07.979Z,10.65
2023-03-04T12:40:03.040Z,10.59
2023-03-04T12:42:58.548Z,10.63
2023-03-04T12:45:51.328Z,10.62
2023-03-04T12:48:40.319Z,10.56
2023-03-04T12:51:07.008Z,10.52
2023-03-04T12:54:01.913Z,10.36
2023-03-04T12:56:37.694Z,10.11
2023-03-04T12:59:06.128Z,9.92
2023-03-04T13:01:45.092Z,9.89
2023-03-04T13:04:41.854Z,9.71
2023-03-04T13:07:24.379Z,10.12
2023-03-04T13:09:58.935Z,10.79
2023-03-04T13:12:25.717Z,10.94
2023-03-04T13:15:07.752Z,10.84
2023-03-04T13:17:49.323Z,10.33
2023-03-04T13:20:25.414Z,10.24
2023-03-04T13:22:56.762Z,10.08
2023-03-04T13:25:35.701Z,10.04
2023-03-04T13:28:05.393Z,9.83
2023-03-04T13:30:32.568Z,9.87
2023-03-04T13:33:21.997Z,9.83
2023-03-04T13:35:54.822Z,9.78
2023-03-04T13:38:37.383Z,9.76
2023-03-04T13:41:21.561Z,9.67
2023-03-04T13:43:52.064Z,9.82
2023-03-04T13:46:18.907Z,9.72
2023-03-04T13:48:51.942Z,9.71
2023-03-04T13:51:30.728Z,9.63
2023-03-04T13:54:00.501Z,9.65
2023-03-04T13:56:37.728Z,9.65
2023-03-04T13:59:07.608Z,9.72
2023-03-04T14:01:37.293Z,9.80
2023-03-04T14:04:27.648Z,9.73
2023-03-04T14:06:58.335Z,9.92
2023-03-04T14:09:33.576Z,9.88
2023-03-04T14:12:12.622Z,9.86
2023-03-04T14:14:49.637Z,9.78
2023-03-04T14:17:31.759Z,9.56
2023-03-04T14:19:59.880Z,9.65
2023-03-04T14:22:30.218Z,9.60
2023-03-04T14:24:58.552Z,9.62
2023-03-04T14:27:25.517Z,9.54
2023-03-04T14:30:00.924Z,9.83
2023-03-04T14:32:29.785Z,10.13
2023-03-04T14:35:01.947Z,10.14
2023-03-04T14:37:42.461Z,10.32
2023-03-04T14:40:23.432Z,10.30
2023-03-04T14:42:57.184Z,10.18
2023-03-04T14:45:25.043Z,9.98
2023-03-04T14:47:55.291Z,9.84
2023-03-04T14:50:22.716Z,9.84
2023-03-04T14:53:03.263Z,9.72
2023-03-04T14:55:30.324Z,9.64
2023-03-04T14:58:20.304Z,9.60
2023-03-04T15:00:47.576Z,9.45
2023-03-04T15:03:29.046Z,9.32
2023-03-04T15:05:58.459Z,9.37
2023-03-04T15:08:29.246Z,9.32
2023-03-04T15:10:59.609Z,9.22
2023-03-04T15:13:46.225Z,9.27
2023-03-04T15:16:15.115Z,9.14
2023-03-04T15:18:58.180Z,9.11
2023-03-04T15:21:32.464Z,9.11
2023-03-04T15:24:00.537Z,9.03
2023-03-04T15:26:27.350Z,8.93
2023-03-04T15:28:54.183Z,8.88
2023-03-04T15:31:23.998Z,8.81
2023-03-04T15:33:50.779Z,8.72
2023-03-04T15:36:21.904Z,8.59
2023-03-04T15:38:53.528Z,8.64
2023-03-04T15:41:25.943Z,8.61
2023-03-04T15:43:54.333Z,8.60
2023-03-04T15:46:21.690Z,8.49
2023-03-04T15:48:49.216Z,8.53
2023-03-04T15:51:20.911Z,8.36
2023-03-04T15:53:51.462Z,8.30
2023-03-04T15:56:21.979Z,8.21
2023-03-04T15:58:57.552Z,8.29
2023-03-04T16:01:25.119Z,8.25
2023-03-04T16:03:53.810Z,8.20
2023-03-04T16:06:23.456Z,8.14
2023-03-04T16:08:51.737Z,7.99
2023-03-04T16:11:25.620Z,8.03
2023-03-04T16:13:53.228Z,7.98
2023-03-04T16:16:20.358Z,7.94
2023-03-04T16:18:47.184Z,7.91
2023-03-04T16:21:23.388Z,7.85
2023-03-04T16:23:51.773Z,7.76
2023-03-04T16:26:21.294Z,7.62
2023-03-04T16:28:48.230Z,7.63
2023-03-04T16:31:15.768Z,7.61
2023-03-04T16:33:42.960Z,7.59
2023-03-04T16:36:25.069Z,7.49
2023-03-04T16:38:55.199Z,7.34
2023-03-04T16:41:24.855Z,7.43
2023-03-04T16:43:51.799Z,7.27
2023-03-04T16:46:18.760Z,7.37
2023-03-04T16:48:47.495Z,7.41
2023-03-04T16:51:17.349Z,7.35
2023-03-04T16:53:48.743Z,7.44
2023-03-04T16:56:18.583Z,7.36
2023-03-04T16:58:46.444Z,7.24
2023-03-04T17:01:21.769Z,7.24
2023-03-04T17:03:48.878Z,7.04
2023-03-04T17:06:16.394Z,7.02
2023-03-04T17:08:43.317Z,6.93
2023-03-04T17:11:17.347Z,6.85
2023-03-04T17:13:44.942Z,6.75
2023-03-04T17:16:12.339Z,6.73
2023-03-04T17:18:39.431Z,6.62
2023-03-04T17:21:10.589Z,6.52
2023-03-04T17:23:37.379Z,6.48
2023-03-04T17:26:05.950Z,6.43
2023-03-04T17:28:32.832Z,6.36
2023-03-04T17:30:59.685Z,6.23
2023-03-04T17:33:26.557Z,6.11
2023-03-04T17:35:53.560Z,6.03
2023-03-04T17:38:20.412Z,6.02
2023-03-04T17:40:47.152Z,5.96
2023-03-04T17:43:14.130Z,5.87
2023-03-04T17:45:42.087Z,5.89
2023-03-04T17:48:17.173Z,5.90
2023-03-04T17:50:51.765Z,5.94
2023-03-04T17:53:21.918Z,5.99
2023-03-04T17:55:53.487Z,6.10
2023-03-04T17:58:20.483Z,6.07
2023-03-04T18:00:47.685Z,6.10
2023-03-04T18:03:15.134Z,6.20
2023-03-04T18:05:41.846Z,6.20
2023-03-04T18:08:08.603Z,6.16
2023-03-04T18:10:35.310Z,6.22
2023-03-04T18:13:02.077Z,6.13
2023-03-04T18:15:29.112Z,6.25
2023-03-04T18:17:56.075Z,6.25
2023-03-04T18:20:22.916Z,6.30
2023-03-04T18:22:49.674Z,6.35
2023-03-04T18:25:16.967Z,6.48
2023-03-04T18:27:44.306Z,6.44
2023-03-04T18:30:17.747Z,6.39
2023-03-04T18:32:51.860Z,6.31
2023-03-04T18:35:19.831Z,6.29
2023-03-04T18:37:48.262Z,6.21
2023-03-04T18:40:16.057Z,6.20
2023-03-04T18:42:45.544Z,6.14
2023-03-04T18:45:13.628Z,6.32
2023-03-04T18:47:42.890Z,6.44
2023-03-04T18:50:10.841Z,6.50
2023-03-04T18:52:37.743Z,6.55
2023-03-04T18:55:04.808Z,6.48
2023-03-04T18:57:31.879Z,6.52
2023-03-04T19:00:02.205Z,6.54
2023-03-04T19:02:40.940Z,6.81
2023-03-04T19:05:30.102Z,6.82
2023-03-04T19:07:57.496Z,6.87
2023-03-04T19:10:25.532Z,7.15
2023-03-04T19:12:52.518Z,7.13
2023-03-04T19:15:20.180Z,6.99
2023-03-04T19:17:46.902Z,7.10
2023-03-04T19:20:14.990Z,7.11
2023-03-04T19:22:42.305Z,7.19
2023-03-04T19:25:09.988Z,7.29
2023-03-04T19:27:36.935Z,7.25
2023-03-04T19:30:05.137Z,7.25
2023-03-04T19:32:31.994Z,7.14
2023-03-04T19:34:58.824Z,7.07
2023-03-04T19:37:25.558Z,6.97
2023-03-04T19:39:54.427Z,6.98
2023-03-04T19:42:21.666Z,6.85
2023-03-04T19:44:48.643Z,6.76
2023-03-04T19:47:15.435Z,6.80
2023-03-04T19:49:42.158Z,6.63
2023-03-04T19:52:08.970Z,6.66
2023-03-04T19:54:36.038Z,6.65
2023-03-04T19:57:02.782Z,6.55
2023-03-04T19:59:29.484Z,6.42
2023-03-04T20:01:56.268Z,6.36
2023-03-04T20:04:23.117Z,6.26
2023-03-04T20:06:51.103Z,6.25
2023-03-04T20:09:19.183Z,6.19
2023-03-04T20:11:57.801Z,6.05
2023-03-04T20:14:27.483Z,6.10
2023-03-04T20:16:55.244Z,5.93
2023-03-04T20:19:22.059Z,6.10
2023-03-04T20:21:48.800Z,6.05
2023-03-04T20:24:15.566Z,6.06
2023-03-04T20:26:42.494Z,5.92
2023-03-04T20:29:09.229Z,6.02
2023-03-04T20:31:38.461Z,5.82
2023-03-04T20:34:06.472Z,5.93
2023-03-04T20:36:34.537Z,5.84
2023-03-04T20:39:02.784Z,5.71
2023-03-04T20:41:32.264Z,5.70
2023-03-04T20:43:59.299Z,5.49
2023-03-04T20:46:39.947Z,5.51
2023-03-04T20:49:08.219Z,5.37
2023-03-04T20:51:35.411Z,5.30
2023-03-04T20:54:02.955Z,5.32
2023-03-04T20:56:30.085Z,5.32
2023-03-04T20:58:58.265Z,5.26
2023-03-04T21:01:25.471Z,5.25
2023-03-04T21:03:52.332Z,5.14
2023-03-04T21:06:19.371Z,5.27
2023-03-04T21:08:46.305Z,5.09
2023-03-04T21:11:14.973Z,4.90
2023-03-04T21:13:43.099Z,5.06
2023-03-04T21:16:15.191Z,5.02
2023-03-04T21:18:43.678Z,4.90
2023-03-04T21:21:16.776Z,4.84
2023-03-04T21:23:43.513Z,4.96
2023-03-04T21:26:10.168Z,4.77
2023-03-04T21:28:37.113Z,4.69
2023-03-04T21:31:04.695Z,4.76
2023-03-04T21:33:36.583Z,4.71
2023-03-04T21:36:03.612Z,4.74
2023-03-04T21:38:30.319Z,4.73
2023-03-04T21:40:57.254Z,4.66
2023-03-04T21:43:24.143Z,4.58
2023-03-04T21:45:55.679Z,4.62
2023-03-04T21:48:23.650Z,4.70
2023-03-04T21:50:50.893Z,4.57
2023-03-04T21:53:21.619Z,4.56
2023-03-04T21:55:49.998Z,4.47
2023-03-04T21:58:17.026Z,4.56
2023-03-04T22:00:44.106Z,4.58
2023-03-04T22:03:11.121Z,4.53
2023-03-04T22:05:44.815Z,4.54
2023-03-04T22:08:12.867Z,4.43
2023-03-04T22:10:43.342Z,4.53
2023-03-04T22:13:13.072Z,4.58
2023-03-04T22:15:42.639Z,4.42
2023-03-04T22:18:13.519Z,4.62
2023-03-04T22:20:44.024Z,4.62
2023-03-04T22:23:12.315Z,4.56
2023-03-04T22:25:41.243Z,4.48
2023-03-04T22:28:08.674Z,4.54
2023-03-04T22:30:35.661Z,4.57
2023-03-04T22:33:02.521Z,4.56
2023-03-04T22:35:29.441Z,4.59
2023-03-04T22:37:56.257Z,4.57
2023-03-04T22:40:23.991Z,4.47
2023-03-04T22:42:50.883Z,4.64
2023-03-04T22:45:18.641Z,4.59
2023-03-04T22:47:52.778Z,4.54
2023-03-04T22:50:20.957Z,4.51
2023-03-04T22:52:48.136Z,4.48
2023-03-04T22:55:17.428Z,4.52
2023-03-04T22:57:44.331Z,4.51
2023-03-04T23:00:23.225Z,4.50
2023-03-04T23:02:51.020Z,4.51
2023-03-04T23:05:20.920Z,4.50
2023-03-04T23:07:48.563Z,4.50
2023-03-04T23:10:21.820Z,4.55
2023-03-04T23:12:49.516Z,4.50
2023-03-04T23:15:18.058Z,4.49
2023-03-04T23:17:45.764Z,4.60
2023-03-04T23:20:18.431Z,4.62
2023-03-04T23:22:46.401Z,4.59
2023-03-04T23:25:14.175Z,4.58
2023-03-04T23:27:41.869Z,4.56
2023-03-04T23:30:14.991Z,4.49
2023-03-04T23:32:42.935Z,4.49
2023-03-04T23:35:10.099Z,4.61
2023-03-04T23:37:36.942Z,4.58
2023-03-04T23:40:04.017Z,4.57
2023-03-04T23:42:30.860Z,4.34
2023-03-04T23:44:57.611Z,4.52
2023-03-04T23:47:24.360Z,4.43
2023-03-04T23:49:51.142Z,4.41
2023-03-04T23:52:17.879Z,4.46
2023-03-04T23:54:44.598Z,4.52
2023-03-04T23:57:11.326Z,4.32
2023-03-04T23:59:38.892Z,4.50
